Flight Track Log - Related Links

Times and Time Zones

All times are in EDT time to prevent confusion due to time zone crossing. See the SAS1641 flight status page for this flight to view local times or setup timezone preferences in your user account.

Time Position Orientation Groundspeed Altitude Reporting Facility
EDT Latitude Longitude Course Direction KTS MPH feet Rate Location/Type
Tue 02:42:00 AM 55.4001 12.3466 219° Southwest  Level Estimated
Tue 02:43:00 AM 55.3274 12.2442 219° Southwest  Level Estimated
Tue 02:44:00 AM 55.2545 12.1422 219° Southwest  Level Estimated
Tue 02:45:00 AM 55.1816 12.0406 219° Southwest  Level Estimated
Tue 02:46:00 AM 55.1086 11.9393 218° Southwest  Level Estimated
Tue 02:47:00 AM 55.0354 11.8384 218° Southwest  Level Estimated
Tue 02:48:00 AM 54.9622 11.7379 218° Southwest  Level Estimated
Tue 02:49:00 AM 54.8890 11.6377 218° Southwest  Level Estimated
Tue 02:50:00 AM 54.8156 11.5379 218° Southwest  Level Estimated
Tue 02:51:00 AM 54.7422 11.4385 218° Southwest  Level Estimated
Tue 02:52:00 AM 54.6687 11.3395 218° Southwest  Level Estimated
Tue 02:53:00 AM 54.5951 11.2408 218° Southwest  Level Estimated
Tue 02:54:00 AM 54.5214 11.1424 218° Southwest  Level Estimated
Tue 02:55:00 AM 54.4477 11.0444 218° Southwest  Level Estimated
Tue 02:56:00 AM 54.3738 10.9467 218° Southwest  Level Estimated
Tue 02:57:00 AM 54.2999 10.8495 218° Southwest  Level Estimated
Tue 02:58:00 AM 54.2259 10.7525 217° Southwest  Level Estimated
Tue 02:59:00 AM 54.1518 10.6559 217° Southwest  Level Estimated
Tue 03:00:00 AM 54.0777 10.5597 217° Southwest  Level Estimated
Tue 03:01:00 AM 54.0035 10.4637 217° Southwest  Level Estimated
Tue 03:02:00 AM 53.9292 10.3682 217° Southwest  Level Estimated
Tue 03:03:00 AM 53.8335 10.2458 217° Southwest  Level Estimated
Tue 03:04:00 AM 53.7378 10.1240 217° Southwest  Level Estimated
Tue 03:05:00 AM 53.6419 10.0027 217° Southwest  Level Estimated
Tue 03:06:00 AM 53.6304 9.9882 217° Southwest  Level Estimated
Tue 03:07:00 AM 53.6304 9.9882 North  Level Estimated
Tue 03:08:00 AM 53.6304 9.9882 North  Level Estimated
Tue 03:09:00 AM 53.6304 9.9882 North  Level Estimated
Tue 03:10:00 AM 53.6304 9.9882 North  Level Estimated
Tue 03:11:00 AM 53.6304 9.9882 North  Level Estimated
Tue 03:12:00 AM 53.6304 9.9882 North  Level Estimated
Tue 03:13:00 AM 53.6304 9.9882 North  Level Estimated
Tue 03:14:00 AM 53.6304 9.9882 North  Level Estimated
Tue 03:15:00 AM 53.6304 9.9882 North  Level Estimated
Tue 03:16:00 AM 53.6304 9.9882 North  Level Estimated

Login

Don't have an account? Register now (free) for customized features, flight alerts, and more!